Vandling, Pennsylvania
Current Conditions -  °F | °C
As of 11:19 PM on Monday 22 Dec 2014 (Local Time) from KAVP Reporting Station
Overcast Overcast  
Wind Chill: 42°   Ceiling: 900
Heat Index: 42°   Visibility: 10mi
Dew Point: 37°   Wind: 3mph
Humidity: 82%   Direction: 100°E
Pressure: 30.1"   Gusts: NA
Location:  41.6599°N, 75.4935°W
Report Text: KAVP 230419Z AUTO 10003KT 10SM OVC009 06/03 A3010 RMK AO2 T00560028
Loading
Personal Weather Stations






























Interactive Weather Map New forecast layout! Learn more

10-Day Weather Forecast

Advertisements
Track Severe Weather on mobile